Time;durP1;ratioP1;P1;durP2;ratioP2;P2;SDS_P1;SDS_P2;PMS_P1;PMS_P2;Temp;Humidity;BMP_temperature;BMP_pressure;BME280_temperature;BME280_humidity;BME280_pressure;Samples;Min_cycle;Max_cycle;Signal;HPM_P1;HPM_P2
2023/04/18 00:01:08;;;;;;;14.70;10.40;;;;;;;9.94;100.00;100009.50;5118090;27;20027;-72
2023/04/18 00:03:36;;;;;;;14.32;9.30;;;;;;;9.90;100.00;100007.91;5136367;27;20031;-73
2023/04/18 00:06:02;;;;;;;17.35;10.38;;;;;;;9.93;100.00;100023.91;5117470;27;20043;-72
2023/04/18 00:08:27;;;;;;;14.23;9.93;;;;;;;9.90;100.00;100010.44;5136188;27;20027;-73
2023/04/18 00:10:53;;;;;;;14.15;9.52;;;;;;;10.19;100.00;100080.00;5135592;27;20088;-72
2023/04/18 00:13:18;;;;;;;14.25;9.15;;;;;;;10.17;100.00;100085.97;5117445;27;20034;-73
2023/04/18 00:15:45;;;;;;;13.57;9.93;;;;;;;9.93;100.00;100082.31;5135680;27;20123;-74
2023/04/18 00:18:11;;;;;;;17.55;10.18;;;;;;;9.89;100.00;100064.63;5117946;27;20541;-73
2023/04/18 00:20:38;;;;;;;14.40;10.32;;;;;;;10.14;100.00;100109.75;5117720;27;20015;-73
2023/04/18 00:23:05;;;;;;;12.98;9.75;;;;;;;10.00;100.00;100055.06;5117701;27;20378;-75
2023/04/18 00:25:30;;;;;;;16.20;10.35;;;;;;;10.26;100.00;100111.19;5117433;27;20031;-74
2023/04/18 00:27:56;;;;;;;15.35;10.52;;;;;;;10.21;100.00;100098.56;5117989;27;20031;-73
2023/04/18 00:30:22;;;;;;;15.77;10.60;;;;;;;10.18;100.00;100116.41;5116965;27;20118;-72
2023/04/18 00:32:47;;;;;;;18.40;10.45;;;;;;;10.27;100.00;100115.38;5135642;27;20062;-73
2023/04/18 00:35:13;;;;;;;16.50;10.95;;;;;;;10.07;100.00;100092.97;5116426;27;20026;-74
2023/04/18 00:37:38;;;;;;;14.70;10.55;;;;;;;9.91;100.00;100053.56;5128304;27;20041;-73
2023/04/18 00:40:04;;;;;;;18.58;10.57;;;;;;;10.21;100.00;100105.34;5130593;27;20106;-73
2023/04/18 00:42:30;;;;;;;17.92;10.90;;;;;;;10.23;100.00;100109.53;5135897;27;20626;-73
2023/04/18 00:44:56;;;;;;;18.52;11.65;;;;;;;9.96;100.00;100076.31;5116997;27;20110;-73
2023/04/18 00:47:21;;;;;;;17.85;11.55;;;;;;;10.25;100.00;100124.75;5116808;27;20038;-74
2023/04/18 00:49:47;;;;;;;18.58;10.40;;;;;;;9.94;100.00;100060.28;5135279;27;20481;-74
2023/04/18 00:52:13;;;;;;;15.00;10.60;;;;;;;10.05;100.00;100099.78;5135424;27;20420;-73
2023/04/18 00:54:39;;;;;;;15.48;10.63;;;;;;;9.93;100.00;100076.38;5116784;27;20051;-74
2023/04/18 00:57:05;;;;;;;17.40;10.77;;;;;;;9.93;100.00;100077.22;5116950;27;20093;-73
2023/04/18 00:59:34;;;;;;;16.08;10.70;;;;;;;9.84;100.00;100051.22;5116766;27;20055;-73
2023/04/18 01:02:00;;;;;;;14.38;10.38;;;;;;;9.85;100.00;100060.50;5134851;27;20023;-74
2023/04/18 01:04:26;;;;;;;18.20;11.07;;;;;;;10.23;100.00;100119.69;5116708;27;20481;-73
2023/04/18 01:06:51;;;;;;;14.70;10.18;;;;;;;9.74;100.00;100050.59;5134651;27;20031;-73
2023/04/18 01:09:17;;;;;;;14.25;10.18;;;;;;;9.91;100.00;100063.72;5134644;27;20038;-73
2023/04/18 01:11:42;;;;;;;18.50;10.90;;;;;;;9.78;100.00;100054.75;5134442;27;20473;-73
2023/04/18 01:14:08;;;;;;;17.92;10.80;;;;;;;10.21;100.00;100121.44;5134894;27;20027;-73
2023/04/18 01:16:33;;;;;;;15.43;10.45;;;;;;;10.04;100.00;100059.19;5125273;27;20103;-72
2023/04/18 01:19:00;;;;;;;16.63;10.35;;;;;;;9.98;100.00;100057.63;5136428;27;20030;-73
2023/04/18 01:21:29;;;;;;;15.98;10.15;;;;;;;10.11;100.00;100098.84;5155679;27;20037;-73
2023/04/18 01:23:59;;;;;;;16.48;10.45;;;;;;;9.92;100.00;100064.56;5155287;27;20117;-72
2023/04/18 01:26:24;;;;;;;17.23;10.75;;;;;;;10.32;100.00;100121.16;5136809;27;20121;-73
2023/04/18 01:28:50;;;;;;;15.13;10.45;;;;;;;10.35;100.00;100088.06;5155225;27;20491;-72
2023/04/18 01:31:15;;;;;;;16.65;10.38;;;;;;;9.93;100.00;100050.97;5155767;27;20659;-73
2023/04/18 01:33:41;;;;;;;17.23;9.63;;;;;;;10.17;100.00;100104.59;5136311;27;20409;-72
2023/04/18 01:36:06;;;;;;;16.60;10.10;;;;;;;10.25;100.00;100115.41;5154932;27;20035;-73
2023/04/18 01:38:32;;;;;;;16.08;10.00;;;;;;;10.33;100.00;100115.22;5136985;27;20037;-73
2023/04/18 01:41:09;;;;;;;15.10;9.80;;;;;;;9.90;100.00;100036.69;5154831;27;20409;-73
2023/04/18 01:43:35;;;;;;;15.43;10.20;;;;;;;9.96;100.00;100059.38;5154560;27;20048;-73
2023/04/18 01:46:00;;;;;;;14.88;9.82;;;;;;;10.25;100.00;100092.56;5155025;27;20034;-73
2023/04/18 01:48:25;;;;;;;13.45;10.32;;;;;;;9.72;100.00;100008.34;5154942;27;20033;-73
2023/04/18 01:50:51;;;;;;;17.10;9.98;;;;;;;10.21;100.00;100093.50;5155062;27;20038;-73
2023/04/18 01:53:16;;;;;;;14.50;9.63;;;;;;;10.00;100.00;100088.88;5136181;27;20035;-73
2023/04/18 01:55:42;;;;;;;16.98;10.18;;;;;;;10.11;100.00;100079.34;5154633;27;20420;-73
2023/04/18 01:58:07;;;;;;;17.10;9.93;;;;;;;9.77;100.00;100022.59;5136422;27;20520;-73
2023/04/18 02:00:37;;;;;;;13.57;10.02;;;;;;;10.16;100.00;100091.94;5154222;27;20393;-73
2023/04/18 02:03:02;;;;;;;13.43;9.70;;;;;;;10.14;100.00;100084.34;5154601;27;20114;-72
2023/04/18 02:05:28;;;;;;;13.70;10.02;;;;;;;10.17;100.00;100091.91;5153937;27;20026;-73
2023/04/18 02:07:53;;;;;;;13.13;9.55;;;;;;;9.94;100.00;100052.66;5153793;27;20141;-72
2023/04/18 02:10:19;;;;;;;14.25;10.20;;;;;;;10.09;100.00;100093.75;5135641;27;20079;-72
2023/04/18 02:12:45;;;;;;;13.50;9.07;;;;;;;10.16;100.00;100097.84;5136077;27;20026;-72
2023/04/18 02:15:11;;;;;;;14.45;10.25;;;;;;;9.84;100.00;100041.06;5154408;27;20122;-74
2023/04/18 02:17:36;;;;;;;13.38;9.85;;;;;;;9.84;100.00;100041.91;5135662;27;20031;-73
2023/04/18 02:20:02;;;;;;;12.90;10.02;;;;;;;10.19;100.00;100090.16;5154242;27;20023;-73
2023/04/18 02:22:29;;;;;;;14.98;9.88;;;;;;;9.88;100.00;100053.66;5154417;27;20030;-73
2023/04/18 02:24:54;;;;;;;17.08;9.90;;;;;;;10.06;100.00;100091.28;5152766;27;20466;-73
2023/04/18 02:27:20;;;;;;;15.82;9.98;;;;;;;10.06;100.00;100100.63;5153995;27;20026;-73
2023/04/18 02:29:45;;;;;;;17.63;10.20;;;;;;;9.66;100.00;100003.41;5154398;27;20022;-73
2023/04/18 02:32:11;;;;;;;13.25;9.27;;;;;;;10.10;100.00;100092.09;5120686;27;20038;-73
2023/04/18 02:34:36;;;;;;;18.17;9.98;;;;;;;9.79;100.00;100038.63;5118221;27;20036;-73
2023/04/18 02:37:02;;;;;;;16.17;10.32;;;;;;;9.67;100.00;100003.38;5133440;27;20034;-72
2023/04/18 02:39:27;;;;;;;14.52;10.48;;;;;;;10.04;100.00;100066.81;5117842;27;20078;-73
2023/04/18 02:41:53;;;;;;;15.40;10.63;;;;;;;10.01;100.00;100082.94;5122007;27;20382;-73
2023/04/18 02:44:18;;;;;;;13.32;9.63;;;;;;;9.74;100.00;100040.44;5115028;27;20067;-73
2023/04/18 02:46:44;;;;;;;14.95;10.35;;;;;;;10.13;100.00;100104.72;5132795;27;20459;-74
2023/04/18 02:49:09;;;;;;;13.88;9.75;;;;;;;10.11;100.00;100104.75;5132752;27;20544;-73
2023/04/18 02:51:34;;;;;;;15.07;9.77;;;;;;;10.08;100.00;100098.88;5132903;27;20030;-74
2023/04/18 02:54:00;;;;;;;13.52;9.40;;;;;;;10.00;100.00;100076.19;5132379;27;20027;-74
2023/04/18 02:56:25;;;;;;;14.00;10.18;;;;;;;10.15;100.00;100087.72;5133134;27;20071;-74
2023/04/18 02:58:52;;;;;;;16.98;10.23;;;;;;;9.57;100.00;100004.47;5132967;27;20516;-73
2023/04/18 03:01:17;;;;;;;14.13;10.45;;;;;;;10.03;100.00;100072.75;5133214;27;20023;-73
2023/04/18 03:03:43;;;;;;;18.23;10.85;;;;;;;9.73;100.00;100015.91;5114282;27;20031;-72
2023/04/18 03:06:08;;;;;;;16.15;10.93;;;;;;;10.16;100.00;100077.53;5132811;27;20050;-72
2023/04/18 03:08:34;;;;;;;18.38;11.40;;;;;;;9.80;100.00;100009.84;5132438;27;20058;-72
2023/04/18 03:10:59;;;;;;;15.38;10.77;;;;;;;9.61;100.00;99981.53;5113918;27;20462;-72
2023/04/18 03:13:25;;;;;;;15.60;10.38;;;;;;;9.80;100.00;100022.53;5113828;27;20034;-73
2023/04/18 03:15:51;;;;;;;15.95;10.38;;;;;;;9.99;100.00;100073.69;5114144;27;20088;-72
2023/04/18 03:18:16;;;;;;;15.10;10.40;;;;;;;9.83;100.00;100026.69;5114030;27;20450;-72
2023/04/18 03:20:41;;;;;;;16.58;10.68;;;;;;;9.99;100.00;100064.38;5121606;27;20548;-73
2023/04/18 03:23:07;;;;;;;15.85;10.90;;;;;;;9.84;100.00;100036.00;5127216;27;20485;-73
2023/04/18 03:25:33;;;;;;;14.38;11.13;;;;;;;9.78;100.00;100015.81;5112189;28;20035;-73
2023/04/18 03:27:59;;;;;;;15.15;10.55;;;;;;;9.83;100.00;100019.06;5110738;28;20486;-73
2023/04/18 03:30:24;;;;;;;20.50;12.20;;;;;;;9.68;100.00;100006.75;5111909;28;20070;-73
2023/04/18 03:32:51;;;;;;;19.70;11.93;;;;;;;9.71;100.00;100006.66;5132144;27;20031;-74
2023/04/18 03:35:17;;;;;;;17.83;12.00;;;;;;;10.22;100.00;100064.66;5137586;27;20412;-76
2023/04/18 03:37:43;;;;;;;15.63;10.88;;;;;;;10.52;100.00;100057.16;5141928;27;20042;-77
2023/04/18 03:40:09;;;;;;;15.18;10.75;;;;;;;10.32;100.00;100044.94;5119729;28;20038;-74
2023/04/18 03:42:35;;;;;;;17.02;10.77;;;;;;;9.84;100.00;99983.50;5132699;28;20019;-74
2023/04/18 03:45:00;;;;;;;13.80;9.70;;;;;;;9.78;100.00;99991.28;5132281;28;20020;-74
2023/04/18 03:47:26;;;;;;;16.90;10.18;;;;;;;10.03;100.00;100057.50;5131787;28;20035;-74
2023/04/18 03:49:53;;;;;;;16.70;10.80;;;;;;;9.97;100.00;100040.72;5130083;27;20035;-76
2023/04/18 03:52:19;;;;;;;16.52;10.20;;;;;;;10.27;100.00;100049.31;5131220;28;20047;-77
2023/04/18 03:54:44;;;;;;;16.15;10.27;;;;;;;10.13;100.00;100059.81;5113550;28;20130;-76
2023/04/18 03:57:09;;;;;;;13.45;9.82;;;;;;;9.71;100.00;99991.44;5131575;28;20040;-75
2023/04/18 03:59:35;;;;;;;16.73;9.98;;;;;;;9.74;100.00;99994.75;5113405;28;20046;-75
2023/04/18 04:02:00;;;;;;;17.58;10.60;;;;;;;9.97;100.00;100050.88;5131823;28;20038;-76
2023/04/18 04:04:26;;;;;;;14.68;10.07;;;;;;;10.29;100.00;100033.16;5132630;28;20023;-78
2023/04/18 04:06:52;;;;;;;12.85;9.82;;;;;;;9.95;100.00;100046.69;5113544;28;20121;-78
2023/04/18 04:09:17;;;;;;;15.55;9.35;;;;;;;9.83;100.00;100032.59;5131152;28;20061;-79
2023/04/18 04:11:44;;;;;;;13.75;9.75;;;;;;;9.87;100.00;100039.28;5131589;28;20080;-77
2023/04/18 04:14:10;;;;;;;14.57;10.68;;;;;;;9.78;100.00;100009.03;5110895;28;20572;-77
2023/04/18 04:16:35;;;;;;;15.82;10.43;;;;;;;10.02;100.00;100046.50;5112996;28;20027;-78
2023/04/18 04:19:00;;;;;;;21.23;13.50;;;;;;;9.80;100.00;100047.94;5130807;28;20035;-79
2023/04/18 04:21:26;;;;;;;25.25;16.50;;;;;;;9.72;100.00;99996.50;5113578;27;20408;-77
2023/04/18 04:23:51;;;;;;;25.95;18.58;;;;;;;10.11;100.00;100053.13;5135071;27;20049;-80
2023/04/18 04:26:17;;;;;;;20.50;12.90;;;;;;;10.09;100.00;100049.75;5117661;27;20501;-73
2023/04/18 04:28:45;;;;;;;16.58;10.88;;;;;;;10.16;100.00;100056.38;5118244;27;20087;-76
2023/04/18 04:31:10;;;;;;;16.08;10.88;;;;;;;10.21;100.00;100046.94;5117524;27;20027;-76
2023/04/18 04:33:37;;;;;;;16.83;10.73;;;;;;;10.18;100.00;100045.28;5117495;27;20035;-78
2023/04/18 04:36:04;;;;;;;18.80;11.93;;;;;;;10.16;100.00;100036.88;5135443;27;20038;-78
2023/04/18 04:38:29;;;;;;;16.38;11.50;;;;;;;9.79;100.00;99987.84;5135949;27;20015;-79
2023/04/18 04:40:56;;;;;;;17.27;11.40;;;;;;;10.19;100.00;99988.53;5135610;27;20038;-78
2023/04/18 04:43:21;;;;;;;14.98;10.00;;;;;;;11.68;100.00;100028.31;5117557;27;20023;-75
2023/04/18 04:45:50;;;;;;;16.65;11.52;;;;;;;10.90;100.00;100041.66;5135368;27;20031;-78
2023/04/18 04:48:17;;;;;;;15.35;11.27;;;;;;;10.74;100.00;100043.78;5117725;27;20088;-77
2023/04/18 04:50:51;;;;;;;18.20;11.60;;;;;;;10.62;100.00;100036.50;5117185;27;20553;-77
2023/04/18 04:53:17;;;;;;;15.50;10.98;;;;;;;10.40;100.00;100030.31;5117177;27;20035;-76
2023/04/18 04:55:42;;;;;;;18.17;11.50;;;;;;;9.98;100.00;99940.00;5117259;27;20141;-77
2023/04/18 04:58:08;;;;;;;18.02;11.40;;;;;;;10.51;100.00;99981.75;5135805;27;20027;-76
2023/04/18 05:00:33;;;;;;;16.63;11.20;;;;;;;10.30;100.00;99976.38;5116810;27;20031;-77
2023/04/18 05:03:00;;;;;;;20.88;11.27;;;;;;;10.45;100.00;100033.59;5117199;27;20133;-78
2023/04/18 05:05:26;;;;;;;18.65;11.60;;;;;;;10.69;100.00;100001.59;5116543;27;20038;-76
2023/04/18 05:07:52;;;;;;;15.50;11.10;;;;;;;10.29;100.00;100000.13;5134786;27;20039;-77
2023/04/18 05:10:17;;;;;;;17.13;11.18;;;;;;;10.38;100.00;99966.84;5116371;27;20019;-77
2023/04/18 05:12:42;;;;;;;16.90;11.55;;;;;;;10.63;100.00;100022.09;5134414;27;20393;-77
2023/04/18 05:15:09;;;;;;;19.27;11.73;;;;;;;10.28;100.00;99954.44;5116753;27;20039;-77
2023/04/18 05:17:34;;;;;;;19.02;11.15;;;;;;;10.17;100.00;99957.28;5133972;27;20039;-76
2023/04/18 05:19:59;;;;;;;20.42;11.82;;;;;;;10.50;100.00;100005.53;5135244;27;20033;-76
2023/04/18 05:22:25;;;;;;;20.17;11.90;;;;;;;10.48;100.00;99998.75;5116847;27;20122;-76
2023/04/18 05:24:50;;;;;;;19.90;12.23;;;;;;;10.47;100.00;99996.25;5134390;27;20031;-76
2023/04/18 05:27:16;;;;;;;22.90;12.40;;;;;;;10.36;100.00;99960.97;5134874;27;20035;-76
2023/04/18 05:29:41;;;;;;;17.98;13.18;;;;;;;10.48;100.00;100007.28;5134538;27;20031;-76
2023/04/18 05:32:08;;;;;;;19.17;12.93;;;;;;;10.48;100.00;100006.38;5117234;27;20023;-76
2023/04/18 05:34:36;;;;;;;20.52;13.10;;;;;;;10.38;100.00;99910.09;5115349;27;20031;-76
2023/04/18 05:37:01;;;;;;;20.83;13.02;;;;;;;10.39;100.00;99912.63;5116805;27;20027;-76
2023/04/18 05:39:27;;;;;;;24.65;13.65;;;;;;;10.71;100.00;99954.06;5134819;27;20034;-77
2023/04/18 05:41:52;;;;;;;24.23;13.75;;;;;;;10.56;100.00;99949.44;5134925;27;20083;-76
2023/04/18 05:44:18;;;;;;;19.75;13.00;;;;;;;10.63;100.00;99950.91;5116774;27;20031;-77
2023/04/18 05:46:45;;;;;;;19.38;13.90;;;;;;;10.33;100.00;99905.16;5117559;27;20034;-79
2023/04/18 05:49:10;;;;;;;20.08;13.88;;;;;;;10.57;100.00;99930.75;5135109;27;20109;-78
2023/04/18 05:51:36;;;;;;;30.48;14.02;;;;;;;10.51;100.00;99925.84;5135902;27;20055;-77
2023/04/18 05:54:01;;;;;;;20.98;14.02;;;;;;;10.60;100.00;99933.22;5134301;27;20118;-78
2023/04/18 05:56:28;;;;;;;20.75;13.77;;;;;;;10.68;100.00;99919.38;5135302;27;20103;-79
2023/04/18 05:58:53;;;;;;;21.40;13.88;;;;;;;10.34;100.00;99867.88;5116015;27;20054;-78
2023/04/18 06:01:21;;;;;;;24.70;14.45;;;;;;;10.74;100.00;99905.66;5134910;27;20118;-78
2023/04/18 06:03:47;;;;;;;22.55;14.27;;;;;;;10.89;100.00;99911.13;5115910;27;20031;-79
2023/04/18 06:06:12;;;;;;;20.38;14.38;;;;;;;10.77;100.00;99890.31;5115790;27;20076;-77
2023/04/18 06:08:38;;;;;;;28.58;15.13;;;;;;;11.04;100.00;99889.47;5115835;27;20038;-78
2023/04/18 06:11:04;;;;;;;23.60;14.32;;;;;;;11.02;100.00;99893.78;5134225;27;20031;-76
2023/04/18 06:13:30;;;;;;;20.67;15.18;;;;;;;10.98;100.00;99872.69;5115832;27;20068;-77
2023/04/18 06:15:55;;;;;;;20.25;14.50;;;;;;;10.88;100.00;99811.97;5115604;27;20027;-77
2023/04/18 06:18:21;;;;;;;22.27;14.40;;;;;;;11.12;100.00;99865.47;5115642;27;20589;-77
2023/04/18 06:20:46;;;;;;;22.35;15.15;;;;;;;11.02;100.00;99805.59;5133718;27;20039;-77
2023/04/18 06:23:11;;;;;;;21.52;14.80;;;;;;;11.51;100.00;99845.50;5133468;27;20039;-77
2023/04/18 06:25:40;;;;;;;22.50;15.82;;;;;;;10.88;100.00;99810.28;5134148;27;20042;-77
2023/04/18 06:28:05;;;;;;;19.90;14.73;;;;;;;11.18;100.00;99846.63;5133587;27;20054;-75
2023/04/18 06:30:30;;;;;;;24.38;15.65;;;;;;;11.14;100.00;99833.16;5115314;27;20053;-78
2023/04/18 06:32:56;;;;;;;23.40;17.05;;;;;;;11.34;100.00;99835.91;5133555;27;20031;-77
2023/04/18 06:35:21;;;;;;;24.08;16.52;;;;;;;10.99;100.00;99762.44;5134476;27;20023;-78
2023/04/18 06:37:47;;;;;;;27.38;17.65;;;;;;;11.36;100.00;99820.56;5115357;27;20034;-78
2023/04/18 06:40:12;;;;;;;23.02;15.82;;;;;;;11.35;100.00;99807.00;5133452;27;20031;-78
2023/04/18 06:42:38;;;;;;;27.50;16.85;;;;;;;10.35;100.00;99689.16;5114790;27;20065;-77
2023/04/18 06:45:05;;;;;;;26.23;16.52;;;;;;;11.17;100.00;99799.97;5132789;27;20031;-77
2023/04/18 06:47:30;;;;;;;22.25;17.23;;;;;;;11.23;100.00;99786.25;5133569;27;20027;-76
2023/04/18 06:49:58;;;;;;;22.63;16.33;;;;;;;11.36;100.00;99779.84;5115305;27;20236;-77
2023/04/18 06:52:23;;;;;;;21.92;17.05;;;;;;;11.47;100.00;99734.47;5133011;27;20489;-78
2023/04/18 06:54:49;;;;;;;23.38;18.00;;;;;;;11.76;100.00;99764.88;5133299;27;20038;-78
2023/04/18 06:57:14;;;;;;;28.60;20.25;;;;;;;11.95;100.00;99759.91;5114808;27;20019;-76
2023/04/18 06:59:42;;;;;;;24.77;17.98;;;;;;;12.25;100.00;99748.56;5114266;27;20030;-76
2023/04/18 07:02:08;;;;;;;25.38;18.60;;;;;;;12.25;100.00;99729.88;5115223;27;20034;-75
2023/04/18 07:04:33;;;;;;;25.23;16.92;;;;;;;12.07;100.00;99722.06;5133421;27;20031;-76
2023/04/18 07:07:00;;;;;;;24.90;17.95;;;;;;;11.87;100.00;99727.09;5114464;27;20058;-75
2023/04/18 07:09:26;;;;;;;22.17;17.15;;;;;;;11.24;100.00;99674.22;5133201;27;20023;-76
2023/04/18 07:11:51;;;;;;;23.10;16.50;;;;;;;11.77;100.00;99710.47;5114401;27;20569;-76
2023/04/18 07:14:18;;;;;;;23.10;17.23;;;;;;;11.73;100.00;99650.38;5114875;27;20031;-78
2023/04/18 07:16:45;;;;;;;21.60;17.95;;;;;;;12.37;100.00;99683.53;5133277;27;20027;-75
2023/04/18 07:19:11;;;;;;;30.83;17.48;;;;;;;12.50;100.00;99677.06;5133659;27;20024;-76
2023/04/18 07:21:37;;;;;;;26.60;17.60;;;;;;;12.53;100.00;99671.81;5132877;27;20038;-77
2023/04/18 07:24:03;;;;;;;24.42;16.80;;;;;;;11.59;100.00;99558.38;5114417;27;20027;-76
2023/04/18 07:26:28;;;;;;;23.13;17.40;;;;;;;12.47;100.00;99659.31;5133103;27;20550;-77
2023/04/18 07:28:53;;;;;;;24.88;17.75;;;;;;;12.35;100.00;99598.63;5132784;27;20118;-76
2023/04/18 07:31:19;;;;;;;24.23;18.20;;;;;;;12.41;100.00;99645.13;5132348;27;20031;-76
2023/04/18 07:33:44;;;;;;;23.48;17.90;;;;;;;12.27;100.00;99565.81;5132900;27;20035;-76
2023/04/18 07:36:10;;;;;;;20.60;16.70;;;;;;;11.79;100.00;99573.72;5132989;28;20039;-77
2023/04/18 07:38:35;;;;;;;21.77;17.65;;;;;;;12.62;100.00;99554.13;5132509;28;20027;-77
2023/04/18 07:41:02;;;;;;;19.92;16.25;;;;;;;12.17;100.00;99555.19;5132424;28;20035;-76
2023/04/18 07:43:27;;;;;;;22.88;17.77;;;;;;;12.70;100.00;99585.22;5114925;28;20023;-77
2023/04/18 07:45:53;;;;;;;22.15;17.80;;;;;;;12.83;100.00;99581.28;5114467;28;20031;-77
2023/04/18 07:48:23;;;;;;;22.25;16.77;;;;;;;13.34;100.00;99571.31;5114775;28;20556;-76
2023/04/18 07:50:49;;;;;;;23.30;17.10;;;;;;;13.79;100.00;99515.50;5132790;28;20467;-77
2023/04/18 07:53:15;;;;;;;21.70;17.27;;;;;;;13.28;100.00;99415.88;5133054;28;20027;-78
2023/04/18 07:55:42;;;;;;;20.42;17.15;;;;;;;13.76;100.00;99485.03;5132583;28;20082;-79
2023/04/18 07:58:08;;;;;;;23.70;18.75;;;;;;;14.10;100.00;99450.13;5116887;27;20485;-77
2023/04/18 08:00:38;;;;;;;24.05;18.15;;;;;;;13.71;100.00;99435.88;5118185;27;20477;-76
2023/04/18 08:03:04;;;;;;;24.90;18.08;;;;;;;14.34;100.00;99374.75;5136700;27;20027;-77
2023/04/18 08:05:30;;;;;;;20.45;16.27;;;;;;;13.16;100.00;99337.34;5136623;27;20031;-76
2023/04/18 08:07:55;;;;;;;18.98;16.40;;;;;;;13.47;100.00;99363.00;5136449;27;20034;-76
2023/04/18 08:10:21;;;;;;;19.73;15.85;;;;;;;13.44;100.00;99345.31;5117650;27;20031;-75
2023/04/18 08:12:46;;;;;;;21.13;17.73;;;;;;;13.88;100.00;99249.31;5136006;27;20411;-74
2023/04/18 08:15:11;;;;;;;18.77;16.73;;;;;;;14.30;100.00;99302.44;5135926;27;20413;-75
2023/04/18 08:17:37;;;;;;;24.17;18.58;;;;;;;14.26;100.00;99300.13;5136008;27;20114;-76
2023/04/18 08:20:06;;;;;;;21.95;18.25;;;;;;;14.24;100.00;99289.16;5136641;27;20819;-76
2023/04/18 08:22:31;;;;;;;21.13;18.35;;;;;;;13.95;100.00;99252.38;5136535;27;20019;-75
2023/04/18 08:24:57;;;;;;;23.70;18.35;;;;;;;14.41;100.00;99279.69;5118098;27;20030;-75
2023/04/18 08:27:22;;;;;;;21.33;18.60;;;;;;;13.45;100.00;99236.34;5136536;27;20080;-75
2023/04/18 08:29:47;;;;;;;27.20;22.15;;;;;;;13.64;100.00;99296.59;5136386;27;20034;-76
2023/04/18 08:32:13;;;;;;;27.25;21.85;;;;;;;14.16;100.00;99287.03;5118451;27;20031;-74
2023/04/18 08:34:38;;;;;;;27.10;21.40;;;;;;;13.73;100.00;99229.69;5136311;27;20035;-75
2023/04/18 08:37:04;;;;;;;23.38;18.75;;;;;;;13.60;100.00;99295.09;5117720;27;20541;-75
2023/04/18 08:39:30;;;;;;;25.85;19.48;;;;;;;13.55;100.00;99293.66;5135781;27;20031;-75
2023/04/18 08:41:59;;;;;;;23.13;20.38;;;;;;;13.62;100.00;99282.25;5135376;27;20032;-76
2023/04/18 08:44:27;;;;;;;22.23;19.83;;;;;;;14.33;100.00;99270.78;5135814;27;20164;-76
2023/04/18 08:46:54;;;;;;;21.75;19.27;;;;;;;13.53;100.00;99183.09;5117742;27;20477;-75
2023/04/18 08:49:21;;;;;;;23.20;20.17;;;;;;;13.96;100.00;99268.53;5135898;27;20027;-75
2023/04/18 08:51:50;;;;;;;23.08;19.38;;;;;;;13.22;100.00;99181.34;5135553;27;20039;-75
2023/04/18 08:54:17;;;;;;;21.13;18.92;;;;;;;13.33;100.00;99236.97;5117435;27;20035;-73
2023/04/18 08:56:43;;;;;;;21.70;18.38;;;;;;;13.37;100.00;99286.97;5135669;27;20477;-76
2023/04/18 08:59:10;;;;;;;21.27;18.88;;;;;;;13.71;100.00;99271.53;5116752;27;20031;-75
2023/04/18 09:02:09;;;;;;;19.75;17.65;;;;;;;13.81;100.00;99286.31;5117258;27;20035;-76
2023/04/18 09:04:47;;;;;;;21.92;18.45;;;;;;;13.31;100.00;99300.84;5083780;27;20046;-75
2023/04/18 09:07:15;;;;;;;21.90;18.70;;;;;;;13.00;100.00;99309.16;5132645;27;20167;-75
2023/04/18 09:09:41;;;;;;;21.52;18.20;;;;;;;12.79;100.00;99289.81;5135068;27;20819;-73
2023/04/18 09:12:08;;;;;;;21.73;18.10;;;;;;;12.87;100.00;99322.59;5116791;27;20066;-75
2023/04/18 09:14:41;;;;;;;18.40;16.27;;;;;;;12.74;100.00;99313.84;5116700;27;20019;-77
2023/04/18 09:17:09;;;;;;;19.83;17.70;;;;;;;12.32;100.00;99221.56;5116734;27;20035;-74
2023/04/18 09:19:35;;;;;;;21.17;18.98;;;;;;;13.03;100.00;99316.69;5135092;27;20034;-76
2023/04/18 09:22:03;;;;;;;21.65;18.70;;;;;;;12.79;100.00;99332.31;5114994;27;20027;-73
2023/04/18 09:24:30;;;;;;;20.27;16.85;;;;;;;13.04;100.00;99304.75;5100559;27;20039;-75
2023/04/18 09:26:58;;;;;;;21.55;19.15;;;;;;;13.08;100.00;99311.38;5104956;27;20042;-74
2023/04/18 09:29:48;;;;;;;22.35;18.60;;;;;;;13.09;100.00;99315.59;5097120;28;20027;-74
2023/04/18 09:32:25;;;;;;;21.05;17.98;;;;;;;12.72;100.00;99333.50;5096993;28;20030;-74
2023/04/18 09:34:56;;;;;;;22.15;16.92;;;;;;;12.82;100.00;99309.22;5114662;28;20019;-74
2023/04/18 09:37:23;;;;;;;19.95;15.57;;;;;;;12.22;100.00;99274.69;5105322;27;20037;-74
2023/04/18 09:39:49;;;;;;;18.52;14.52;;;;;;;12.01;100.00;99225.53;5137174;27;20038;-76
2023/04/18 09:42:15;;;;;;;24.45;13.27;;;;;;;13.30;100.00;99316.25;5134975;27;20030;-80
2023/04/18 09:45:05;;;;;;;15.65;12.60;;;;;;;12.78;100.00;99277.09;5134799;27;20051;-75
2023/04/18 09:47:33;;;;;;;21.80;12.68;;;;;;;12.81;100.00;99339.03;5135387;27;20075;-75
2023/04/18 09:50:01;;;;;;;14.63;10.68;;;;;;;12.23;100.00;99278.88;5134646;27;20029;-74
2023/04/18 09:52:32;;;;;;;14.88;10.90;;;;;;;12.63;100.00;99313.53;5134359;27;20037;-75
2023/04/18 09:55:00;;;;;;;15.52;11.63;;;;;;;12.41;100.00;99326.47;5115575;27;20123;-76
2023/04/18 09:57:28;;;;;;;14.75;9.95;;;;;;;12.09;100.00;99348.31;5116009;27;20118;-76
2023/04/18 10:00:23;;;;;;;15.38;10.60;;;;;;;12.06;100.00;99353.50;5134520;27;20031;-75
2023/04/18 10:02:52;;;;;;;16.60;10.43;;;;;;;12.06;100.00;99357.81;5115298;27;20148;-75
2023/04/18 10:05:19;;;;;;;14.48;10.77;;;;;;;11.72;100.00;99304.97;5116067;27;20035;-75
2023/04/18 10:07:47;;;;;;;14.35;11.05;;;;;;;12.05;100.00;99341.69;5134481;27;20039;-75
2023/04/18 10:10:13;;;;;;;14.85;11.45;;;;;;;11.88;100.00;99313.59;5115081;27;20462;-74
2023/04/18 10:12:40;;;;;;;13.20;10.52;;;;;;;11.82;100.00;99325.75;5115945;27;20054;-76
2023/04/18 10:15:07;;;;;;;15.20;11.93;;;;;;;11.69;100.00;99316.97;5115929;27;20139;-77
2023/04/18 10:17:42;;;;;;;17.02;11.88;;;;;;;11.76;100.00;99321.78;5133982;27;20038;-76
2023/04/18 10:20:14;;;;;;;16.05;12.18;;;;;;;12.08;100.00;99378.94;5133352;27;20489;-76
2023/04/18 10:22:39;;;;;;;13.82;11.10;;;;;;;11.58;100.00;99345.44;5116072;27;20023;-75
2023/04/18 10:25:05;;;;;;;14.20;10.85;;;;;;;11.56;100.00;99331.94;5115950;27;20034;-77
2023/04/18 10:28:05;;;;;;;14.85;11.68;;;;;;;11.77;100.00;99381.97;5115676;27;20035;-78
2023/04/18 10:30:50;;;;;;;18.73;13.43;;;;;;;11.89;100.00;99370.44;5089915;27;20043;-77
2023/04/18 10:33:24;;;;;;;16.52;12.25;;;;;;;11.58;100.00;99325.06;5113280;27;20031;-77
2023/04/18 10:36:08;;;;;;;15.07;12.00;;;;;;;11.78;100.00;99388.75;5115660;27;20126;-76
2023/04/18 10:38:44;;;;;;;18.08;11.73;;;;;;;11.51;100.00;99320.31;5133812;27;21197;-76
2023/04/18 10:41:27;;;;;;;18.17;14.07;;;;;;;11.84;100.00;99383.38;5133758;27;20054;-76
2023/04/18 10:44:13;;;;;;;18.65;13.60;;;;;;;11.77;100.00;99383.69;5115463;27;20039;-77
2023/04/18 10:47:07;;;;;;;16.35;12.75;;;;;;;11.76;100.00;99351.50;5115243;27;20030;-77
2023/04/18 10:49:35;;;;;;;16.38;12.77;;;;;;;11.65;100.00;99270.44;5126258;27;20035;-75
2023/04/18 10:52:01;;;;;;;16.20;13.90;;;;;;;12.00;100.00;99279.09;5133834;27;20049;-77
2023/04/18 10:54:27;;;;;;;17.02;12.80;;;;;;;12.35;100.00;99300.41;5115496;27;20051;-77
2023/04/18 10:57:01;;;;;;;15.60;11.93;;;;;;;11.39;100.00;99217.28;5115327;27;20515;-76
2023/04/18 10:59:29;;;;;;;17.88;12.70;;;;;;;11.97;100.00;99277.50;5115473;27;20034;-76
2023/04/18 11:02:31;;;;;;;15.88;13.43;;;;;;;12.02;100.00;99265.38;5115153;27;20061;-76
2023/04/18 11:05:05;;;;;;;15.00;12.70;;;;;;;12.25;100.00;99312.75;5115242;27;20481;-75
2023/04/18 11:07:38;;;;;;;18.75;14.35;;;;;;;12.52;100.00;99336.19;5132954;27;20059;-75
2023/04/18 11:10:05;;;;;;;17.95;13.25;;;;;;;12.28;100.00;99343.19;5133439;27;20042;-76